Diego Tercer — EA8089 — position and weather

sailwx.info

Track history (hours):
 
Tides and Currents Weather Stations Pressure Air Temp Water Temp Dewpoint Dewpoint Depression Visibility Wind Speed Wind Dir Waves Ship Positions

Diego Tercer

Last reported at 2017-Sep-28 09:50 UTC. Time now 2017-Oct-20 05:21 UTC.
Position N 40°36' E 001°04'.
Warning: this ship's position is 21 days out of date.

Length 23 m.

Type: Fishing. MMSI: 224147190.

Date/timePositionNaut miles runAvg speedWind from/ knotsBaromVisibWave heightAir tempDewpointWater temp
2017-Sep-28 09:50N 40°36' E 001°04'1 3.8
2017-Sep-28 09:30N 40°37' E 001°03'2 3.8
2017-Sep-28 08:51N 40°40' E 001°01'2 3.9
2017-Sep-28 08:23N 40°41' E 001°00'8 3.3
2017-Sep-28 06:01N 40°47' E 000°54'0 4.0
2017-Sep-28 05:55N 40°47' E 000°53'18 0.9
2017-Sep-27 09:52N 40°39' E 001°14'0 0.5
2017-Sep-27 09:15N 40°39' E 001°14'1 3.7
2017-Sep-27 08:58N 40°40' E 001°13'23 0.5
2017-Sep-25 14:47N 40°53' E 000°48'0 0.0
2017-Sep-25 14:29N 40°53' E 000°48'0 0.0
2017-Sep-25 13:55N 40°53' E 000°48'4 8.9
2017-Sep-25 13:30N 40°50' E 000°51'4 7.2
2017-Sep-25 13:00N 40°47' E 000°54'1 2.7
2017-Sep-25 12:30N 40°46' E 000°55'2 3.9
2017-Sep-25 11:59N 40°45' E 000°57'2 3.7
2017-Sep-25 11:23N 40°42' E 000°57'2 3.9
2017-Sep-25 10:53N 40°41' E 000°56'2 3.9
2017-Sep-25 10:29N 40°39' E 000°55'2 3.9
2017-Sep-25 10:00N 40°37' E 000°55'1 1.8
2017-Sep-25 09:30N 40°38' E 000°55'3 3.9
2017-Sep-25 08:50N 40°41' E 000°56'1 3.8
2017-Sep-25 08:27N 40°42' E 000°57'2 3.8
2017-Sep-25 07:51N 40°44' E 000°57'1 4.0
2017-Sep-25 07:30N 40°45' E 000°56'2 3.9
2017-Sep-25 07:00N 40°47' E 000°54'2 2.7
2017-Sep-25 06:18N 40°48' E 000°52'1 3.7
2017-Sep-25 06:00N 40°48' E 000°51'  
2017-Sep-21 09:49N 40°37' E 001°14'1 3.0
2017-Sep-21 09:30N 40°36' E 001°15'5 0.1
2017-Sep-19 08:52N 40°34' E 001°08'  
Track history (hours):
 
Tides and Currents Weather Stations Pressure Air Temp Water Temp Dewpoint Dewpoint Depression Visibility Wind Speed Wind Dir Waves Ship Positions

Diego Tercer

Last reported at 2017-Sep-28 09:50 UTC. Time now 2017-Oct-20 05:21 UTC.
Position N 40°36' E 001°04'.
Warning: this ship's position is 21 days out of date.

Length 23 m.

Type: Fishing. MMSI: 224147190.

Date/timePositionNaut miles runAvg speedWind from/ knotsBaromVisibWave heightAir tempDewpointWater temp
2017-Sep-28 09:50N 40°36' E 001°04'1 3.8
2017-Sep-28 09:30N 40°37' E 001°03'2 3.8
2017-Sep-28 08:51N 40°40' E 001°01'2 3.9
2017-Sep-28 08:23N 40°41' E 001°00'8 3.3
2017-Sep-28 06:01N 40°47' E 000°54'0 4.0
2017-Sep-28 05:55N 40°47' E 000°53'18 0.9
2017-Sep-27 09:52N 40°39' E 001°14'0 0.5
2017-Sep-27 09:15N 40°39' E 001°14'1 3.7
2017-Sep-27 08:58N 40°40' E 001°13'23 0.5
2017-Sep-25 14:47N 40°53' E 000°48'0 0.0
2017-Sep-25 14:29N 40°53' E 000°48'0 0.0
2017-Sep-25 13:55N 40°53' E 000°48'4 8.9
2017-Sep-25 13:30N 40°50' E 000°51'4 7.2
2017-Sep-25 13:00N 40°47' E 000°54'1 2.7
2017-Sep-25 12:30N 40°46' E 000°55'2 3.9
2017-Sep-25 11:59N 40°45' E 000°57'2 3.7
2017-Sep-25 11:23N 40°42' E 000°57'2 3.9
2017-Sep-25 10:53N 40°41' E 000°56'2 3.9
2017-Sep-25 10:29N 40°39' E 000°55'2 3.9
2017-Sep-25 10:00N 40°37' E 000°55'1 1.8
2017-Sep-25 09:30N 40°38' E 000°55'3 3.9
2017-Sep-25 08:50N 40°41' E 000°56'1 3.8
2017-Sep-25 08:27N 40°42' E 000°57'2 3.8
2017-Sep-25 07:51N 40°44' E 000°57'1 4.0
2017-Sep-25 07:30N 40°45' E 000°56'2 3.9
2017-Sep-25 07:00N 40°47' E 000°54'2 2.7
2017-Sep-25 06:18N 40°48' E 000°52'1 3.7
2017-Sep-25 06:00N 40°48' E 000°51'  
2017-Sep-21 09:49N 40°37' E 001°14'1 3.0
2017-Sep-21 09:30N 40°36' E 001°15'5 0.1
2017-Sep-19 08:52N 40°34' E 001°08'  

Dump ship's entire track history